createdAt,value
2017-09-03T00:00:02.141Z,9.7
2017-09-03T00:01:03.044Z,9.7
2017-09-03T00:02:03.699Z,9.7
2017-09-03T00:03:04.366Z,9.7
2017-09-03T00:04:05.061Z,9.7
2017-09-03T00:05:05.716Z,9.7
2017-09-03T00:06:06.668Z,9.6
2017-09-03T00:07:07.322Z,9.7
2017-09-03T00:08:07.975Z,9.7
2017-09-03T00:09:08.629Z,9.6
2017-09-03T00:10:09.281Z,9.7
2017-09-03T00:11:10.235Z,9.6
2017-09-03T00:12:10.891Z,9.6
2017-09-03T00:13:11.580Z,9.6
2017-09-03T00:14:12.232Z,9.7
2017-09-03T00:15:12.886Z,9.6
2017-09-03T00:16:13.791Z,9.6
2017-09-03T00:17:14.480Z,9.7
2017-09-03T00:18:15.135Z,9.6
2017-09-03T00:19:15.788Z,9.6
2017-09-03T00:20:16.442Z,9.7
2017-09-03T00:21:17.352Z,9.7
2017-09-03T00:22:17.998Z,9.7
2017-09-03T00:23:18.651Z,9.6
2017-09-03T00:24:19.305Z,9.6
2017-09-03T00:25:19.958Z,9.6
2017-09-03T00:26:20.911Z,9.6
2017-09-03T00:27:21.564Z,9.6
2017-09-03T00:28:22.219Z,9.5
2017-09-03T00:29:22.870Z,9.6
2017-09-03T00:30:23.524Z,9.6
2017-09-03T00:31:24.428Z,9.7
2017-09-03T00:32:25.082Z,9.6
2017-09-03T00:33:25.734Z,9.7
2017-09-03T00:34:26.437Z,9.7
2017-09-03T00:35:27.091Z,9.7
2017-09-03T00:36:28.028Z,9.7
2017-09-03T00:37:28.717Z,9.7
2017-09-03T00:38:29.369Z,9.8
2017-09-03T00:39:30.022Z,9.7
2017-09-03T00:40:30.677Z,9.6
2017-09-03T00:41:31.579Z,9.7
2017-09-03T00:42:32.231Z,9.6
2017-09-03T00:43:32.885Z,9.6
2017-09-03T00:44:33.539Z,9.6
2017-09-03T00:45:34.191Z,9.7
2017-09-03T00:46:35.145Z,9.7
2017-09-03T00:47:35.797Z,9.7
2017-09-03T00:48:36.458Z,9.6
2017-09-03T00:49:37.105Z,9.7
2017-09-03T00:50:37.761Z,9.7
2017-09-03T00:51:38.668Z,9.6
2017-09-03T00:52:39.317Z,9.5
2017-09-03T00:53:39.978Z,9.6
2017-09-03T00:54:40.661Z,9.7
2017-09-03T00:55:41.312Z,9.6
2017-09-03T00:56:42.220Z,9.7
2017-09-03T00:57:42.872Z,9.6
2017-09-03T00:58:43.525Z,9.6
2017-09-03T00:59:44.180Z,9.6
2017-09-03T01:00:44.832Z,9.5
2017-09-03T01:01:45.736Z,9.5
2017-09-03T01:02:46.392Z,9.5
2017-09-03T01:03:47.043Z,9.5
2017-09-03T01:04:47.699Z,9.5
2017-09-03T01:05:48.351Z,9.5
2017-09-03T01:06:49.255Z,9.5
2017-09-03T01:07:49.908Z,9.5
2017-09-03T01:08:50.560Z,9.5
2017-09-03T01:09:51.214Z,9.5
2017-09-03T01:10:51.866Z,9.5
2017-09-03T01:11:52.822Z,9.4
2017-09-03T01:12:53.476Z,9.4
2017-09-03T01:13:54.129Z,9.5
2017-09-03T01:14:54.783Z,9.5
2017-09-03T01:15:55.436Z,9.5
2017-09-03T01:16:56.340Z,9.5
2017-09-03T01:17:56.994Z,9.5
2017-09-03T01:18:57.648Z,9.5
2017-09-03T01:19:58.302Z,9.5
2017-09-03T01:20:58.954Z,9.5
2017-09-03T01:21:59.909Z,9.5
2017-09-03T01:23:00.561Z,9.5
2017-09-03T01:24:01.216Z,9.4
2017-09-03T01:25:01.868Z,9.5
2017-09-03T01:26:02.523Z,9.5
2017-09-03T01:27:03.431Z,9.5
2017-09-03T01:28:04.078Z,9.5
2017-09-03T01:29:04.731Z,9.4
2017-09-03T01:30:05.386Z,9.5
2017-09-03T01:31:06.038Z,9.5
2017-09-03T01:32:06.942Z,9.5
2017-09-03T01:33:07.596Z,9.5
2017-09-03T01:34:08.249Z,9.5
2017-09-03T01:35:08.938Z,9.5
2017-09-03T01:36:09.627Z,9.5
2017-09-03T01:37:10.530Z,9.5
2017-09-03T01:38:11.184Z,9.5
2017-09-03T01:39:11.838Z,9.5
2017-09-03T01:40:12.494Z,9.5
2017-09-03T01:41:13.145Z,9.4
2017-09-03T01:42:14.051Z,9.5
2017-09-03T01:43:14.736Z,9.4
2017-09-03T01:44:15.389Z,9.5
2017-09-03T01:45:16.045Z,9.4
2017-09-03T01:46:16.697Z,9.4
2017-09-03T01:47:17.602Z,9.4
2017-09-03T01:48:18.257Z,9.4
2017-09-03T01:49:18.909Z,9.3
2017-09-03T01:50:19.562Z,9.4
2017-09-03T01:51:20.215Z,9.4
2017-09-03T01:52:21.120Z,9.3
2017-09-03T01:53:21.773Z,9.4
2017-09-03T01:54:22.427Z,9.3
2017-09-03T01:55:23.081Z,9.3
2017-09-03T01:56:23.733Z,9.3
2017-09-03T01:57:24.677Z,9.4
2017-09-03T01:58:25.361Z,9.4
2017-09-03T01:59:26.015Z,9.3
2017-09-03T02:00:26.669Z,9.3
2017-09-03T02:01:27.321Z,9.4
2017-09-03T02:02:28.224Z,9.5
2017-09-03T02:03:28.879Z,9.3
2017-09-03T02:04:29.531Z,9.3
2017-09-03T02:05:30.184Z,9.3
2017-09-03T02:06:30.836Z,9.3
2017-09-03T02:07:31.740Z,9.4
2017-09-03T02:08:32.393Z,9.4
2017-09-03T02:09:33.046Z,9.3
2017-09-03T02:10:33.713Z,9.4
2017-09-03T02:11:34.364Z,9.3
2017-09-03T02:12:35.267Z,9.3
2017-09-03T02:13:35.921Z,9.3
2017-09-03T02:14:36.573Z,9.3
2017-09-03T02:15:37.226Z,9.2
2017-09-03T02:16:37.882Z,9.3
2017-09-03T02:17:38.834Z,9.2
2017-09-03T02:18:39.486Z,9.2
2017-09-03T02:19:40.146Z,9.2
2017-09-03T02:20:40.792Z,9.2
2017-09-03T02:21:41.456Z,9.2
2017-09-03T02:22:42.348Z,9.2
2017-09-03T02:23:43.002Z,9.3
2017-09-03T02:24:43.653Z,9.2
2017-09-03T02:25:44.307Z,9.2
2017-09-03T02:26:44.959Z,9.2
2017-09-03T02:27:45.914Z,9.1
2017-09-03T02:28:46.566Z,9.2
2017-09-03T02:29:47.219Z,9.2
2017-09-03T02:30:47.873Z,9.2
2017-09-03T02:31:48.525Z,9.1
2017-09-03T02:32:49.478Z,9.1
2017-09-03T02:33:50.133Z,9.1
2017-09-03T02:34:50.784Z,9.1
2017-09-03T02:35:51.471Z,9.1
2017-09-03T02:36:52.124Z,9.0
2017-09-03T02:37:53.026Z,9.1
2017-09-03T02:38:53.679Z,9.1
2017-09-03T02:39:54.332Z,9.1
2017-09-03T02:40:54.987Z,9.2
2017-09-03T02:41:55.637Z,9.1
2017-09-03T02:42:56.590Z,9.1
2017-09-03T02:43:57.245Z,9.1
2017-09-03T02:44:57.897Z,9.2
2017-09-03T02:45:58.550Z,9.2
2017-09-03T02:46:59.203Z,9.1
2017-09-03T02:48:00.160Z,9.1
2017-09-03T02:49:00.845Z,9.1
2017-09-03T02:50:01.498Z,9.1
2017-09-03T02:51:02.150Z,9.2
2017-09-03T02:52:02.802Z,9.2
2017-09-03T02:53:03.706Z,9.2
2017-09-03T02:54:04.358Z,9.2
2017-09-03T02:55:05.011Z,9.2
2017-09-03T02:56:05.662Z,9.2
2017-09-03T02:57:06.318Z,9.3
2017-09-03T02:58:07.220Z,9.3
2017-09-03T02:59:07.871Z,9.3
2017-09-03T03:00:08.526Z,9.3
2017-09-03T03:01:09.179Z,9.4
2017-09-03T03:02:09.832Z,9.4
2017-09-03T03:03:10.736Z,9.5
2017-09-03T03:04:11.390Z,9.5
2017-09-03T03:05:12.041Z,9.5
2017-09-03T03:06:12.696Z,9.5
2017-09-03T03:07:13.349Z,9.5
2017-09-03T03:08:14.252Z,9.6
2017-09-03T03:09:14.906Z,9.5
2017-09-03T03:10:15.559Z,9.6
2017-09-03T03:11:16.211Z,9.7
2017-09-03T03:12:16.866Z,9.6
2017-09-03T03:13:17.772Z,9.6
2017-09-03T03:14:18.426Z,9.7
2017-09-03T03:15:19.078Z,9.6
2017-09-03T03:16:19.731Z,9.6
2017-09-03T03:17:20.384Z,9.6
2017-09-03T03:18:21.338Z,9.7
2017-09-03T03:19:21.991Z,9.6
2017-09-03T03:20:22.646Z,9.6
2017-09-03T03:21:23.298Z,9.6
2017-09-03T03:22:23.951Z,9.6
2017-09-03T03:23:24.906Z,9.6
2017-09-03T03:24:25.558Z,9.6
2017-09-03T03:25:26.211Z,9.6
2017-09-03T03:26:26.863Z,9.6
2017-09-03T03:27:27.518Z,9.7
2017-09-03T03:28:28.420Z,9.6
2017-09-03T03:29:29.073Z,9.5
2017-09-03T03:30:29.728Z,9.5
2017-09-03T03:31:30.381Z,9.5
2017-09-03T03:32:31.033Z,9.4
2017-09-03T03:33:31.988Z,9.5
2017-09-03T03:34:32.642Z,9.5
2017-09-03T03:35:33.295Z,9.5
2017-09-03T03:36:33.947Z,9.4
2017-09-03T03:37:34.602Z,9.4
2017-09-03T03:38:35.560Z,9.4
2017-09-03T03:39:36.214Z,9.4
2017-09-03T03:40:36.866Z,9.4
2017-09-03T03:41:37.518Z,9.4
2017-09-03T03:42:38.171Z,9.3
2017-09-03T03:43:39.111Z,9.3
2017-09-03T03:44:39.763Z,9.3
2017-09-03T03:45:40.417Z,9.3
2017-09-03T03:46:41.070Z,9.3
2017-09-03T03:47:41.722Z,9.3
2017-09-03T03:48:42.626Z,9.3
2017-09-03T03:49:43.280Z,9.3
2017-09-03T03:50:43.932Z,9.2
2017-09-03T03:51:44.587Z,9.2
2017-09-03T03:52:45.243Z,9.2
2017-09-03T03:53:46.193Z,9.2
2017-09-03T03:54:46.845Z,9.2
2017-09-03T03:55:47.501Z,9.1
2017-09-03T03:56:48.154Z,9.1
2017-09-03T03:57:48.807Z,9.0
2017-09-03T03:58:49.708Z,9.1
2017-09-03T03:59:50.361Z,9.0
2017-09-03T04:00:51.015Z,9.1
2017-09-03T04:01:51.668Z,9.1
2017-09-03T04:02:52.320Z,9.0
2017-09-03T04:03:53.224Z,9.0
2017-09-03T04:04:53.877Z,9.0
2017-09-03T04:05:54.529Z,9.0
2017-09-03T04:06:55.185Z,9.0
2017-09-03T04:07:55.835Z,9.0
2017-09-03T04:08:56.789Z,9.0
2017-09-03T04:09:57.442Z,8.9
2017-09-03T04:10:58.096Z,9.0
2017-09-03T04:11:58.784Z,9.0
2017-09-03T04:12:59.440Z,9.0
2017-09-03T04:14:00.342Z,9.0
2017-09-03T04:15:00.995Z,8.9
2017-09-03T04:16:01.649Z,8.9
2017-09-03T04:17:02.303Z,8.9
2017-09-03T04:18:02.956Z,8.9
2017-09-03T04:19:03.861Z,8.9
2017-09-03T04:20:04.517Z,8.9
2017-09-03T04:21:05.170Z,9.0
2017-09-03T04:22:05.825Z,8.8
2017-09-03T04:23:06.477Z,8.9
2017-09-03T04:24:07.381Z,8.9
2017-09-03T04:25:08.035Z,9.0
2017-09-03T04:26:08.688Z,8.9
2017-09-03T04:27:09.348Z,8.9
2017-09-03T04:28:10.033Z,8.9
2017-09-03T04:29:10.937Z,8.9
2017-09-03T04:30:11.591Z,8.9
2017-09-03T04:31:12.246Z,8.9
2017-09-03T04:32:12.900Z,8.9
2017-09-03T04:33:13.555Z,8.9
2017-09-03T04:34:14.460Z,8.9
2017-09-03T04:35:15.116Z,8.9
2017-09-03T04:36:15.809Z,8.9
2017-09-03T04:37:16.462Z,8.8
2017-09-03T04:38:17.116Z,8.9
2017-09-03T04:39:18.021Z,8.9
2017-09-03T04:40:18.713Z,8.8
2017-09-03T04:41:19.367Z,8.9
2017-09-03T04:42:20.022Z,8.9
2017-09-03T04:43:20.678Z,8.9
2017-09-03T04:44:21.632Z,8.8
2017-09-03T04:45:22.285Z,9.0
2017-09-03T04:46:22.941Z,8.9
2017-09-03T04:47:23.595Z,8.9
2017-09-03T04:48:24.252Z,8.9
2017-09-03T04:49:25.157Z,8.9
2017-09-03T04:50:25.813Z,8.9
2017-09-03T04:51:26.471Z,8.9
2017-09-03T04:52:27.126Z,8.9
2017-09-03T04:53:27.781Z,8.9
2017-09-03T04:54:28.698Z,8.8
2017-09-03T04:55:29.354Z,8.8
2017-09-03T04:56:30.046Z,8.9
2017-09-03T04:57:30.703Z,8.9
2017-09-03T04:58:31.359Z,8.8
2017-09-03T04:59:32.266Z,8.9
2017-09-03T05:00:32.925Z,8.9
2017-09-03T05:01:33.583Z,8.9
2017-09-03T05:02:34.239Z,8.9
2017-09-03T05:03:34.898Z,8.9
2017-09-03T05:04:35.806Z,9.0
2017-09-03T05:05:36.465Z,8.9
2017-09-03T05:06:37.123Z,9.0
2017-09-03T05:07:37.778Z,9.0
2017-09-03T05:08:38.435Z,9.0
2017-09-03T05:09:39.344Z,9.0
2017-09-03T05:10:40.003Z,8.9
2017-09-03T05:11:40.657Z,9.0
2017-09-03T05:12:41.321Z,9.1
2017-09-03T05:13:42.009Z,9.1
2017-09-03T05:14:43.003Z,9.0
2017-09-03T05:15:43.659Z,9.2
2017-09-03T05:16:44.316Z,9.1
2017-09-03T05:17:44.973Z,9.1
2017-09-03T05:18:45.630Z,9.1
2017-09-03T05:19:46.539Z,9.1
2017-09-03T05:20:47.194Z,9.1
2017-09-03T05:21:47.852Z,9.2
2017-09-03T05:22:48.510Z,9.2
2017-09-03T05:23:49.166Z,9.2
2017-09-03T05:24:50.076Z,9.2
2017-09-03T05:25:50.733Z,9.2
2017-09-03T05:26:51.401Z,9.3
2017-09-03T05:27:52.058Z,9.3
2017-09-03T05:28:52.715Z,9.4
2017-09-03T05:29:53.673Z,9.3
2017-09-03T05:30:54.366Z,9.5
2017-09-03T05:31:55.023Z,9.5
2017-09-03T05:32:55.679Z,9.5
2017-09-03T05:33:56.336Z,9.5
2017-09-03T05:34:57.296Z,9.6
2017-09-03T05:35:57.956Z,9.5
2017-09-03T05:36:58.612Z,9.6
2017-09-03T05:37:59.268Z,9.6
2017-09-03T05:38:59.927Z,9.6
2017-09-03T05:40:00.833Z,9.7
2017-09-03T05:41:01.490Z,9.6
2017-09-03T05:42:02.146Z,9.7
2017-09-03T05:43:02.805Z,9.7
2017-09-03T05:44:03.461Z,9.8
2017-09-03T05:45:04.454Z,9.7
2017-09-03T05:46:05.110Z,9.8
2017-09-03T05:47:05.776Z,9.8
2017-09-03T05:48:06.461Z,9.8
2017-09-03T05:49:07.120Z,9.9
2017-09-03T05:50:08.078Z,9.9
2017-09-03T05:51:08.736Z,10.0
2017-09-03T05:52:09.394Z,10.0
2017-09-03T05:53:10.052Z,10.0
2017-09-03T05:54:10.711Z,10.1
2017-09-03T05:55:11.621Z,10.2
2017-09-03T05:56:12.281Z,10.2
2017-09-03T05:57:12.969Z,10.3
2017-09-03T05:58:13.608Z,10.2
2017-09-03T05:59:14.266Z,10.3
2017-09-03T06:00:15.174Z,10.3
2017-09-03T06:01:15.835Z,10.5
2017-09-03T06:02:16.495Z,10.4
2017-09-03T06:03:17.189Z,10.5
2017-09-03T06:04:17.846Z,10.5
2017-09-03T06:05:18.805Z,10.6
2017-09-03T06:06:19.467Z,10.5
2017-09-03T06:07:20.125Z,10.6
2017-09-03T06:08:20.784Z,10.6
2017-09-03T06:09:21.443Z,10.6
2017-09-03T06:10:22.402Z,10.6
2017-09-03T06:11:23.061Z,10.8
2017-09-03T06:12:23.721Z,10.7
2017-09-03T06:13:24.382Z,10.8
2017-09-03T06:14:25.041Z,10.9
2017-09-03T06:15:25.949Z,10.9
2017-09-03T06:16:26.608Z,11.0
2017-09-03T06:17:27.266Z,10.9
2017-09-03T06:18:27.927Z,11.0
2017-09-03T06:19:28.589Z,11.1
2017-09-03T06:20:29.496Z,11.1
2017-09-03T06:21:30.157Z,11.1
2017-09-03T06:22:30.815Z,11.1
2017-09-03T06:23:31.475Z,11.2
2017-09-03T06:24:32.136Z,11.2
2017-09-03T06:25:33.049Z,11.2
2017-09-03T06:26:33.739Z,11.3
2017-09-03T06:27:34.398Z,11.4
2017-09-03T06:28:35.059Z,11.4
2017-09-03T06:29:35.715Z,11.4
2017-09-03T06:30:36.624Z,11.5
2017-09-03T06:31:37.283Z,11.5
2017-09-03T06:32:37.944Z,11.6
2017-09-03T06:33:38.603Z,11.6
2017-09-03T06:34:39.262Z,11.6
2017-09-03T06:35:40.173Z,11.5
2017-09-03T06:36:40.867Z,11.7
2017-09-03T06:37:41.527Z,11.7
2017-09-03T06:38:42.186Z,11.6
2017-09-03T06:39:42.843Z,11.7
2017-09-03T06:40:43.753Z,11.7
2017-09-03T06:41:44.414Z,11.9
2017-09-03T06:42:45.074Z,11.7
2017-09-03T06:43:45.731Z,11.9
2017-09-03T06:44:46.389Z,11.9
2017-09-03T06:45:47.297Z,12.0
2017-09-03T06:46:47.957Z,12.0
2017-09-03T06:47:48.616Z,12.0
2017-09-03T06:48:49.284Z,12.0
2017-09-03T06:49:49.932Z,12.1
2017-09-03T06:50:50.841Z,12.2
2017-09-03T06:51:51.501Z,12.2
2017-09-03T06:52:52.159Z,12.2
2017-09-03T06:53:52.818Z,12.3
2017-09-03T06:54:53.478Z,12.4
2017-09-03T06:55:54.385Z,12.4
2017-09-03T06:56:55.050Z,12.3
2017-09-03T06:57:55.702Z,12.3
2017-09-03T06:58:56.361Z,12.5
2017-09-03T06:59:57.023Z,12.5
2017-09-03T07:00:57.933Z,12.5
2017-09-03T07:01:58.592Z,12.5
2017-09-03T07:02:59.250Z,12.5
2017-09-03T07:03:59.910Z,12.6
2017-09-03T07:05:00.575Z,12.6
2017-09-03T07:06:01.485Z,12.7
2017-09-03T07:07:02.146Z,12.7
2017-09-03T07:08:02.806Z,12.7
2017-09-03T07:09:03.465Z,12.8
2017-09-03T07:10:04.125Z,12.8
2017-09-03T07:11:05.073Z,12.8
2017-09-03T07:12:05.732Z,12.8
2017-09-03T07:13:06.391Z,12.9
2017-09-03T07:14:07.051Z,12.9
2017-09-03T07:15:07.712Z,12.9
2017-09-03T07:16:08.624Z,13.0
2017-09-03T07:17:09.286Z,13.0
2017-09-03T07:18:09.945Z,13.1
2017-09-03T07:19:10.606Z,13.0
2017-09-03T07:20:11.268Z,13.1
2017-09-03T07:21:12.178Z,13.2
2017-09-03T07:22:12.843Z,13.2
2017-09-03T07:23:13.504Z,13.2
2017-09-03T07:24:14.164Z,13.2
2017-09-03T07:25:14.824Z,13.2
2017-09-03T07:26:15.734Z,13.3
2017-09-03T07:27:16.395Z,13.3
2017-09-03T07:28:17.062Z,13.4
2017-09-03T07:29:17.724Z,13.4
2017-09-03T07:30:18.384Z,13.4
2017-09-03T07:31:19.292Z,13.4
2017-09-03T07:32:19.989Z,13.5
2017-09-03T07:33:20.651Z,13.6
2017-09-03T07:34:21.313Z,13.7
2017-09-03T07:35:21.971Z,13.8
2017-09-03T07:36:22.882Z,13.7
2017-09-03T07:37:23.545Z,13.9
2017-09-03T07:38:24.241Z,13.9
2017-09-03T07:39:24.900Z,13.9
2017-09-03T07:40:25.562Z,14.0
2017-09-03T07:41:26.557Z,13.9
2017-09-03T07:42:27.184Z,14.1
2017-09-03T07:43:27.845Z,14.1
2017-09-03T07:44:28.508Z,14.2
2017-09-03T07:45:29.168Z,14.1
2017-09-03T07:46:30.113Z,14.3
2017-09-03T07:47:30.773Z,14.3
2017-09-03T07:48:31.478Z,14.2
2017-09-03T07:49:32.139Z,14.3
2017-09-03T07:50:32.801Z,14.3
2017-09-03T07:51:33.711Z,14.3
2017-09-03T07:52:34.371Z,14.4
2017-09-03T07:53:35.034Z,14.5
2017-09-03T07:54:35.717Z,14.5
2017-09-03T07:55:36.356Z,14.5
2017-09-03T07:56:37.266Z,14.5
2017-09-03T07:57:37.927Z,14.6
2017-09-03T07:58:38.589Z,14.5
2017-09-03T07:59:39.249Z,14.7
2017-09-03T08:00:39.909Z,14.7
2017-09-03T08:01:40.870Z,14.7
2017-09-03T08:02:41.531Z,14.8
2017-09-03T08:03:42.192Z,14.8
2017-09-03T08:04:42.855Z,15.0
2017-09-03T08:05:43.517Z,15.0
2017-09-03T08:06:44.428Z,15.1
2017-09-03T08:07:45.090Z,15.0
2017-09-03T08:08:45.753Z,15.0
2017-09-03T08:09:46.450Z,15.1
2017-09-03T08:10:47.113Z,15.1
2017-09-03T08:11:48.027Z,15.1
2017-09-03T08:12:48.689Z,15.2
2017-09-03T08:13:49.357Z,15.3
2017-09-03T08:14:50.049Z,15.4
2017-09-03T08:15:50.712Z,15.4
2017-09-03T08:16:51.626Z,15.4
2017-09-03T08:17:52.287Z,15.4
2017-09-03T08:18:52.948Z,15.4
2017-09-03T08:19:53.611Z,15.4
2017-09-03T08:20:54.273Z,15.5
2017-09-03T08:21:55.236Z,15.6
2017-09-03T08:22:55.901Z,15.7
2017-09-03T08:23:56.564Z,15.8
2017-09-03T08:24:57.227Z,15.9
2017-09-03T08:25:57.894Z,16.1
2017-09-03T08:26:58.809Z,16.2
2017-09-03T08:27:59.472Z,16.5
2017-09-03T08:29:00.133Z,16.6
2017-09-03T08:30:00.797Z,16.8
2017-09-03T08:31:01.460Z,17.0
2017-09-03T08:32:02.374Z,17.1
2017-09-03T08:33:03.041Z,17.3
2017-09-03T08:34:03.703Z,17.4
2017-09-03T08:35:04.367Z,17.7
2017-09-03T08:36:05.031Z,17.8
2017-09-03T08:37:05.993Z,17.9
2017-09-03T08:38:06.656Z,18.0
2017-09-03T08:39:07.321Z,18.0
2017-09-03T08:40:07.985Z,18.0
2017-09-03T08:41:08.647Z,18.2
2017-09-03T08:42:09.561Z,18.3
2017-09-03T08:43:10.226Z,18.6
2017-09-03T08:44:10.891Z,18.8
2017-09-03T08:45:11.554Z,18.8
2017-09-03T08:46:12.220Z,18.9
2017-09-03T08:47:13.137Z,18.8
2017-09-03T08:48:13.802Z,19.0
2017-09-03T08:49:14.464Z,19.1
2017-09-03T08:50:15.131Z,19.2
2017-09-03T08:51:15.797Z,19.4
2017-09-03T08:52:16.711Z,19.4
2017-09-03T08:53:17.383Z,19.5
2017-09-03T08:54:18.055Z,19.7
2017-09-03T08:55:18.710Z,19.8
2017-09-03T08:56:19.377Z,20.2
2017-09-03T08:57:20.291Z,20.5
2017-09-03T08:58:20.957Z,20.8
2017-09-03T08:59:21.624Z,21.2
2017-09-03T09:00:22.327Z,21.6
2017-09-03T09:01:22.991Z,22.0
2017-09-03T09:02:23.958Z,22.3
2017-09-03T09:03:24.623Z,22.7
2017-09-03T09:04:25.290Z,23.0
2017-09-03T09:05:25.954Z,23.4
2017-09-03T09:06:26.621Z,23.7
2017-09-03T09:07:27.541Z,23.9
2017-09-03T09:08:28.208Z,24.1
2017-09-03T09:09:28.873Z,24.3
2017-09-03T09:10:29.542Z,24.4
2017-09-03T09:11:30.219Z,24.6
2017-09-03T09:12:31.163Z,24.6
2017-09-03T09:13:31.831Z,24.8
2017-09-03T09:14:32.498Z,24.9
2017-09-03T09:15:33.167Z,25.2
2017-09-03T09:16:33.837Z,25.3
2017-09-03T09:17:34.805Z,25.6
2017-09-03T09:18:35.472Z,25.8
2017-09-03T09:19:36.149Z,25.8
2017-09-03T09:20:36.847Z,25.8
2017-09-03T09:21:37.519Z,26.0
2017-09-03T09:22:38.486Z,26.1
2017-09-03T09:23:39.156Z,26.1
2017-09-03T09:24:39.825Z,26.1
2017-09-03T09:25:40.493Z,26.4
2017-09-03T09:26:41.162Z,26.6
2017-09-03T09:27:42.118Z,26.8
2017-09-03T09:28:42.787Z,27.0
2017-09-03T09:29:43.456Z,27.2
2017-09-03T09:30:44.125Z,27.2
2017-09-03T09:31:44.794Z,27.3
2017-09-03T09:32:45.715Z,27.4
2017-09-03T09:33:46.382Z,27.7
2017-09-03T09:34:47.051Z,27.9
2017-09-03T09:35:47.719Z,27.9
2017-09-03T09:36:48.389Z,27.9
2017-09-03T09:37:49.308Z,28.0
2017-09-03T09:38:49.980Z,28.0
2017-09-03T09:39:50.684Z,28.3
2017-09-03T09:40:51.354Z,28.5
2017-09-03T09:41:52.024Z,28.7
2017-09-03T09:42:52.944Z,29.0
2017-09-03T09:43:53.614Z,29.2
2017-09-03T09:44:54.283Z,29.5
2017-09-03T09:45:54.951Z,29.4
2017-09-03T09:46:55.620Z,29.4
2017-09-03T09:47:56.538Z,29.6
2017-09-03T09:48:57.207Z,29.8
2017-09-03T09:49:57.877Z,30.1
2017-09-03T09:50:58.556Z,30.0
2017-09-03T09:51:59.227Z,30.1
2017-09-03T09:53:00.199Z,30.4
2017-09-03T09:54:00.869Z,30.7
2017-09-03T09:55:01.539Z,30.9
2017-09-03T09:56:02.209Z,31.2
2017-09-03T09:57:02.877Z,31.5
2017-09-03T09:58:03.883Z,31.3
2017-09-03T09:59:04.559Z,31.1
2017-09-03T10:00:05.226Z,31.2
2017-09-03T10:01:05.898Z,31.1
2017-09-03T10:02:06.571Z,31.4
2017-09-03T10:03:07.541Z,31.5
2017-09-03T10:04:08.214Z,31.8
2017-09-03T10:05:08.883Z,31.9
2017-09-03T10:06:09.556Z,32.1
2017-09-03T10:07:10.227Z,32.0
2017-09-03T10:08:11.148Z,32.2
2017-09-03T10:09:11.825Z,32.1
2017-09-03T10:10:12.498Z,32.0
2017-09-03T10:11:13.173Z,32.1
2017-09-03T10:12:13.845Z,31.9
2017-09-03T10:13:14.850Z,31.0
2017-09-03T10:14:15.522Z,30.5
2017-09-03T10:15:16.194Z,30.9
2017-09-03T10:16:16.868Z,31.2
2017-09-03T10:17:17.542Z,31.6
2017-09-03T10:18:18.515Z,32.2
2017-09-03T10:19:19.194Z,32.6
2017-09-03T10:20:19.859Z,33.0
2017-09-03T10:21:20.535Z,33.3
2017-09-03T10:22:21.208Z,33.6
2017-09-03T10:23:22.135Z,33.9
2017-09-03T10:24:22.811Z,33.9
2017-09-03T10:25:23.518Z,33.7
2017-09-03T10:26:24.189Z,33.6
2017-09-03T10:27:24.861Z,33.5
2017-09-03T10:28:25.789Z,33.3
2017-09-03T10:29:26.459Z,32.9
2017-09-03T10:30:27.167Z,33.1
2017-09-03T10:31:27.840Z,33.4
2017-09-03T10:32:28.513Z,33.6
2017-09-03T10:33:29.483Z,33.8
2017-09-03T10:34:30.155Z,34.2
2017-09-03T10:35:30.829Z,34.5
2017-09-03T10:36:31.503Z,34.9
2017-09-03T10:37:32.182Z,35.3
2017-09-03T10:38:33.108Z,35.2
2017-09-03T10:39:33.780Z,35.0
2017-09-03T10:40:34.452Z,35.0
2017-09-03T10:41:35.127Z,35.1
2017-09-03T10:42:35.803Z,35.3
2017-09-03T10:43:36.775Z,35.3
2017-09-03T10:44:37.447Z,35.0
2017-09-03T10:45:38.124Z,34.7
2017-09-03T10:46:38.796Z,34.7
2017-09-03T10:47:39.469Z,34.9
2017-09-03T10:48:40.443Z,35.4
2017-09-03T10:49:41.118Z,35.4
2017-09-03T10:50:41.791Z,35.3
2017-09-03T10:51:42.463Z,35.0
2017-09-03T10:52:43.140Z,34.5
2017-09-03T10:53:44.116Z,34.6
2017-09-03T10:54:44.791Z,35.1
2017-09-03T10:55:45.468Z,35.6
2017-09-03T10:56:46.145Z,35.7
2017-09-03T10:57:46.819Z,36.0
2017-09-03T10:58:47.744Z,35.9
2017-09-03T10:59:48.418Z,35.9
2017-09-03T11:00:49.092Z,36.1
2017-09-03T11:01:49.770Z,36.4
2017-09-03T11:02:50.440Z,36.6
2017-09-03T11:03:51.365Z,37.0
2017-09-03T11:04:52.041Z,37.0
2017-09-03T11:05:52.719Z,37.3
2017-09-03T11:06:53.393Z,37.4
2017-09-03T11:07:54.067Z,37.6
2017-09-03T11:08:55.027Z,37.1
2017-09-03T11:09:55.702Z,36.2
2017-09-03T11:10:56.378Z,35.3
2017-09-03T11:11:57.067Z,35.3
2017-09-03T11:12:57.732Z,35.9
2017-09-03T11:13:58.708Z,35.9
2017-09-03T11:14:59.386Z,36.3
2017-09-03T11:16:00.061Z,36.5
2017-09-03T11:17:00.736Z,36.6
2017-09-03T11:18:01.411Z,37.2
2017-09-03T11:19:02.334Z,37.0
2017-09-03T11:20:03.010Z,36.8
2017-09-03T11:21:03.684Z,36.5
2017-09-03T11:22:04.359Z,36.5
2017-09-03T11:23:05.035Z,36.2
2017-09-03T11:24:05.962Z,36.3
2017-09-03T11:25:06.636Z,37.0
2017-09-03T11:26:07.310Z,37.1
2017-09-03T11:27:07.983Z,37.2
2017-09-03T11:28:08.660Z,37.4
2017-09-03T11:29:09.718Z,37.6
2017-09-03T11:30:10.430Z,37.3
2017-09-03T11:31:11.107Z,38.0
2017-09-03T11:32:11.783Z,38.3
2017-09-03T11:33:12.463Z,38.4
2017-09-03T11:34:13.389Z,38.3
2017-09-03T11:35:14.064Z,38.6
2017-09-03T11:36:14.739Z,39.2
2017-09-03T11:37:15.416Z,38.8
2017-09-03T11:38:16.093Z,38.8
2017-09-03T11:39:17.016Z,38.4
2017-09-03T11:40:17.690Z,37.1
2017-09-03T11:41:18.399Z,36.2
2017-09-03T11:42:19.071Z,35.8
2017-09-03T11:43:19.745Z,35.3
2017-09-03T11:44:20.670Z,34.8
2017-09-03T11:45:21.342Z,34.7
2017-09-03T11:46:22.013Z,35.2
2017-09-03T11:47:22.687Z,34.9
2017-09-03T11:48:23.356Z,34.8
2017-09-03T11:49:24.278Z,34.9
2017-09-03T11:50:24.952Z,34.7
2017-09-03T11:51:25.660Z,35.0
2017-09-03T11:52:26.335Z,36.2
2017-09-03T11:53:27.006Z,34.9
2017-09-03T11:54:27.927Z,34.4
2017-09-03T11:55:28.598Z,35.1
2017-09-03T11:56:29.269Z,36.1
2017-09-03T11:57:29.941Z,37.1
2017-09-03T11:58:30.613Z,38.1
2017-09-03T11:59:31.573Z,37.5
2017-09-03T12:00:32.247Z,37.3
2017-09-03T12:01:32.916Z,36.2
2017-09-03T12:02:33.585Z,34.5
2017-09-03T12:03:34.289Z,33.1
2017-09-03T12:04:35.209Z,32.6
2017-09-03T12:05:35.881Z,32.3
2017-09-03T12:06:36.552Z,32.5
2017-09-03T12:07:37.230Z,32.2
2017-09-03T12:08:37.900Z,32.5
2017-09-03T12:09:38.823Z,34.1
2017-09-03T12:10:39.495Z,35.1
2017-09-03T12:11:40.168Z,34.1
2017-09-03T12:12:40.875Z,32.5
2017-09-03T12:13:41.547Z,31.4
2017-09-03T12:14:42.516Z,30.5
2017-09-03T12:15:43.188Z,32.7
2017-09-03T12:16:43.860Z,33.6
2017-09-03T12:17:44.529Z,33.5
2017-09-03T12:18:45.198Z,32.9
2017-09-03T12:19:46.168Z,32.4
2017-09-03T12:20:46.839Z,34.0
2017-09-03T12:21:47.510Z,35.2
2017-09-03T12:22:48.180Z,35.0
2017-09-03T12:23:48.852Z,34.8
2017-09-03T12:24:49.776Z,34.6
2017-09-03T12:25:50.481Z,34.6
2017-09-03T12:26:51.154Z,34.6
2017-09-03T12:27:51.825Z,34.3
2017-09-03T12:28:52.496Z,34.8
2017-09-03T12:29:53.419Z,36.0
2017-09-03T12:30:54.093Z,37.2
2017-09-03T12:31:54.765Z,38.2
2017-09-03T12:32:55.436Z,38.7
2017-09-03T12:33:56.108Z,39.5
2017-09-03T12:34:57.029Z,39.8
2017-09-03T12:35:57.701Z,39.4
2017-09-03T12:36:58.408Z,38.1
2017-09-03T12:37:59.084Z,37.6
2017-09-03T12:38:59.793Z,38.0
2017-09-03T12:40:00.716Z,38.2
2017-09-03T12:41:01.392Z,39.1
2017-09-03T12:42:02.064Z,39.5
2017-09-03T12:43:02.735Z,39.8
2017-09-03T12:44:03.411Z,40.7
2017-09-03T12:45:04.334Z,41.3
2017-09-03T12:46:05.006Z,41.7
2017-09-03T12:47:05.678Z,42.0
2017-09-03T12:48:06.352Z,42.4
2017-09-03T12:49:07.027Z,42.9
2017-09-03T12:50:07.952Z,43.4
2017-09-03T12:51:08.625Z,42.5
2017-09-03T12:52:09.299Z,41.6
2017-09-03T12:53:09.974Z,41.5
2017-09-03T12:54:10.649Z,40.6
2017-09-03T12:55:11.573Z,40.1
2017-09-03T12:56:12.248Z,40.1
2017-09-03T12:57:12.925Z,40.6
2017-09-03T12:58:13.600Z,40.9
2017-09-03T12:59:14.279Z,41.1
2017-09-03T13:00:15.202Z,41.2
2017-09-03T13:01:15.879Z,41.2
2017-09-03T13:02:16.554Z,41.5
2017-09-03T13:03:17.231Z,42.2
2017-09-03T13:04:17.905Z,42.7
2017-09-03T13:05:18.879Z,42.6
2017-09-03T13:06:19.554Z,42.6
2017-09-03T13:07:20.229Z,43.0
2017-09-03T13:08:20.904Z,43.3
2017-09-03T13:09:21.579Z,43.3
2017-09-03T13:10:22.507Z,43.0
2017-09-03T13:11:23.183Z,42.9
2017-09-03T13:12:23.883Z,43.3
2017-09-03T13:13:24.535Z,43.0
2017-09-03T13:14:25.209Z,43.5
2017-09-03T13:15:26.135Z,43.1
2017-09-03T13:16:26.807Z,41.5
2017-09-03T13:17:27.482Z,39.8
2017-09-03T13:18:28.154Z,38.7
2017-09-03T13:19:28.827Z,37.1
2017-09-03T13:20:29.801Z,36.4
2017-09-03T13:21:30.474Z,35.3
2017-09-03T13:22:31.147Z,35.4
2017-09-03T13:23:31.822Z,34.8
2017-09-03T13:24:32.494Z,37.3
2017-09-03T13:25:33.419Z,38.9
2017-09-03T13:26:34.093Z,37.6
2017-09-03T13:27:34.764Z,36.0
2017-09-03T13:28:35.433Z,34.8
2017-09-03T13:29:36.105Z,34.1
2017-09-03T13:30:37.028Z,36.7
2017-09-03T13:31:37.699Z,38.2
2017-09-03T13:32:38.379Z,39.0
2017-09-03T13:33:39.079Z,39.5
2017-09-03T13:34:39.750Z,40.0
2017-09-03T13:35:40.671Z,40.5
2017-09-03T13:36:41.343Z,40.8
2017-09-03T13:37:42.014Z,40.8
2017-09-03T13:38:42.685Z,40.1
2017-09-03T13:39:43.358Z,39.9